sensor_id;sensor_type;location;lat;lon;timestamp;P1;durP1;ratioP1;P2;durP2;ratioP2
26756;SDS011;23848;49.798;10.228;2023-05-20T00:01:29;5.63;;;3.92;;
26756;SDS011;23848;49.798;10.228;2023-05-20T00:03:58;5.72;;;4.10;;
26756;SDS011;23848;49.798;10.228;2023-05-20T00:06:27;6.10;;;4.00;;
26756;SDS011;23848;49.798;10.228;2023-05-20T00:08:55;5.13;;;3.85;;
26756;SDS011;23848;49.798;10.228;2023-05-20T00:11:27;7.10;;;4.10;;
26756;SDS011;23848;49.798;10.228;2023-05-20T00:13:57;5.50;;;3.55;;
26756;SDS011;23848;49.798;10.228;2023-05-20T00:16:26;5.05;;;3.70;;
26756;SDS011;23848;49.798;10.228;2023-05-20T00:18:59;5.95;;;4.00;;
26756;SDS011;23848;49.798;10.228;2023-05-20T00:21:27;5.35;;;3.88;;
26756;SDS011;23848;49.798;10.228;2023-05-20T00:23:56;4.85;;;3.72;;
26756;SDS011;23848;49.798;10.228;2023-05-20T00:26:25;5.22;;;4.30;;
26756;SDS011;23848;49.798;10.228;2023-05-20T00:29:01;5.82;;;3.92;;
26756;SDS011;23848;49.798;10.228;2023-05-20T00:31:30;4.88;;;3.67;;
26756;SDS011;23848;49.798;10.228;2023-05-20T00:33:59;6.07;;;4.05;;
26756;SDS011;23848;49.798;10.228;2023-05-20T00:36:27;6.72;;;4.60;;
26756;SDS011;23848;49.798;10.228;2023-05-20T00:38:57;5.43;;;3.80;;
26756;SDS011;23848;49.798;10.228;2023-05-20T00:41:28;5.43;;;4.20;;
26756;SDS011;23848;49.798;10.228;2023-05-20T00:43:56;5.50;;;4.10;;
26756;SDS011;23848;49.798;10.228;2023-05-20T00:46:29;6.80;;;4.10;;
26756;SDS011;23848;49.798;10.228;2023-05-20T00:48:58;5.35;;;3.60;;
26756;SDS011;23848;49.798;10.228;2023-05-20T00:51:33;5.05;;;3.95;;
26756;SDS011;23848;49.798;10.228;2023-05-20T00:54:02;5.70;;;4.07;;
26756;SDS011;23848;49.798;10.228;2023-05-20T00:56:30;5.47;;;3.95;;
26756;SDS011;23848;49.798;10.228;2023-05-20T00:59:01;5.40;;;4.15;;
26756;SDS011;23848;49.798;10.228;2023-05-20T01:01:31;4.68;;;3.80;;
26756;SDS011;23848;49.798;10.228;2023-05-20T01:03:59;7.65;;;4.15;;
26756;SDS011;23848;49.798;10.228;2023-05-20T01:06:27;5.05;;;3.63;;
26756;SDS011;23848;49.798;10.228;2023-05-20T01:08:56;7.30;;;4.20;;
26756;SDS011;23848;49.798;10.228;2023-05-20T01:11:25;7.40;;;5.03;;
26756;SDS011;23848;49.798;10.228;2023-05-20T01:13:56;5.85;;;3.92;;
26756;SDS011;23848;49.798;10.228;2023-05-20T01:16:25;6.65;;;4.70;;
26756;SDS011;23848;49.798;10.228;2023-05-20T01:18:55;9.45;;;4.20;;
26756;SDS011;23848;49.798;10.228;2023-05-20T01:21:25;6.05;;;4.30;;
26756;SDS011;23848;49.798;10.228;2023-05-20T01:23:56;5.60;;;4.22;;
26756;SDS011;23848;49.798;10.228;2023-05-20T01:26:27;6.38;;;4.22;;
26756;SDS011;23848;49.798;10.228;2023-05-20T01:28:55;6.13;;;4.38;;
26756;SDS011;23848;49.798;10.228;2023-05-20T01:31:31;7.38;;;4.55;;
26756;SDS011;23848;49.798;10.228;2023-05-20T01:34:01;7.28;;;4.53;;
26756;SDS011;23848;49.798;10.228;2023-05-20T01:36:31;6.85;;;4.57;;
26756;SDS011;23848;49.798;10.228;2023-05-20T01:39:01;5.60;;;4.28;;
26756;SDS011;23848;49.798;10.228;2023-05-20T01:41:31;6.63;;;4.10;;
26756;SDS011;23848;49.798;10.228;2023-05-20T01:44:05;7.70;;;4.78;;
26756;SDS011;23848;49.798;10.228;2023-05-20T01:46:34;5.40;;;4.50;;
26756;SDS011;23848;49.798;10.228;2023-05-20T01:49:05;7.80;;;4.32;;
26756;SDS011;23848;49.798;10.228;2023-05-20T01:51:35;6.63;;;4.22;;
26756;SDS011;23848;49.798;10.228;2023-05-20T01:54:07;6.53;;;4.35;;
26756;SDS011;23848;49.798;10.228;2023-05-20T01:56:35;6.22;;;4.22;;
26756;SDS011;23848;49.798;10.228;2023-05-20T01:59:03;8.25;;;4.40;;
26756;SDS011;23848;49.798;10.228;2023-05-20T02:01:33;6.10;;;4.57;;
26756;SDS011;23848;49.798;10.228;2023-05-20T02:04:05;6.23;;;5.23;;
26756;SDS011;23848;49.798;10.228;2023-05-20T02:06:34;6.47;;;5.05;;
26756;SDS011;23848;49.798;10.228;2023-05-20T02:09:02;6.32;;;4.70;;
26756;SDS011;23848;49.798;10.228;2023-05-20T02:11:32;5.80;;;4.45;;
26756;SDS011;23848;49.798;10.228;2023-05-20T02:14:01;7.20;;;5.03;;
26756;SDS011;23848;49.798;10.228;2023-05-20T02:16:29;7.25;;;5.57;;
26756;SDS011;23848;49.798;10.228;2023-05-20T02:18:58;5.35;;;4.40;;
26756;SDS011;23848;49.798;10.228;2023-05-20T02:21:27;6.82;;;4.15;;
26756;SDS011;23848;49.798;10.228;2023-05-20T02:23:56;6.32;;;4.43;;
26756;SDS011;23848;49.798;10.228;2023-05-20T02:26:24;7.32;;;4.70;;
26756;SDS011;23848;49.798;10.228;2023-05-20T02:28:55;6.75;;;4.53;;
26756;SDS011;23848;49.798;10.228;2023-05-20T02:31:23;7.28;;;4.93;;
26756;SDS011;23848;49.798;10.228;2023-05-20T02:33:52;5.95;;;4.55;;
26756;SDS011;23848;49.798;10.228;2023-05-20T02:36:22;5.50;;;4.40;;
26756;SDS011;23848;49.798;10.228;2023-05-20T02:38:51;6.43;;;4.88;;
26756;SDS011;23848;49.798;10.228;2023-05-20T02:41:22;6.97;;;5.13;;
26756;SDS011;23848;49.798;10.228;2023-05-20T02:43:50;6.88;;;5.00;;
26756;SDS011;23848;49.798;10.228;2023-05-20T02:46:21;6.55;;;4.85;;
26756;SDS011;23848;49.798;10.228;2023-05-20T02:48:49;6.32;;;4.85;;
26756;SDS011;23848;49.798;10.228;2023-05-20T02:51:18;6.32;;;4.88;;
26756;SDS011;23848;49.798;10.228;2023-05-20T02:53:47;6.63;;;4.93;;
26756;SDS011;23848;49.798;10.228;2023-05-20T02:56:18;6.18;;;4.65;;
26756;SDS011;23848;49.798;10.228;2023-05-20T02:58:47;6.72;;;4.88;;
26756;SDS011;23848;49.798;10.228;2023-05-20T03:01:15;7.00;;;4.53;;
26756;SDS011;23848;49.798;10.228;2023-05-20T03:03:49;6.50;;;4.90;;
26756;SDS011;23848;49.798;10.228;2023-05-20T03:06:21;6.88;;;5.15;;
26756;SDS011;23848;49.798;10.228;2023-05-20T03:08:53;6.57;;;5.15;;
26756;SDS011;23848;49.798;10.228;2023-05-20T03:11:22;8.07;;;5.70;;
26756;SDS011;23848;49.798;10.228;2023-05-20T03:13:50;7.40;;;5.22;;
26756;SDS011;23848;49.798;10.228;2023-05-20T03:16:18;6.55;;;4.90;;
26756;SDS011;23848;49.798;10.228;2023-05-20T03:18:48;6.65;;;5.68;;
26756;SDS011;23848;49.798;10.228;2023-05-20T03:21:17;7.75;;;5.07;;
26756;SDS011;23848;49.798;10.228;2023-05-20T03:23:45;6.20;;;4.95;;
26756;SDS011;23848;49.798;10.228;2023-05-20T03:26:13;6.93;;;4.85;;
26756;SDS011;23848;49.798;10.228;2023-05-20T03:28:42;6.50;;;4.95;;
26756;SDS011;23848;49.798;10.228;2023-05-20T03:31:10;7.05;;;5.32;;
26756;SDS011;23848;49.798;10.228;2023-05-20T03:33:38;6.38;;;4.88;;
26756;SDS011;23848;49.798;10.228;2023-05-20T03:36:08;7.25;;;5.10;;
26756;SDS011;23848;49.798;10.228;2023-05-20T03:38:36;6.35;;;4.97;;
26756;SDS011;23848;49.798;10.228;2023-05-20T03:41:05;7.68;;;5.68;;
26756;SDS011;23848;49.798;10.228;2023-05-20T03:43:33;7.03;;;5.03;;
26756;SDS011;23848;49.798;10.228;2023-05-20T03:46:01;6.97;;;5.28;;
26756;SDS011;23848;49.798;10.228;2023-05-20T03:48:30;6.95;;;5.30;;
26756;SDS011;23848;49.798;10.228;2023-05-20T03:50:58;6.60;;;5.38;;
26756;SDS011;23848;49.798;10.228;2023-05-20T03:53:30;6.65;;;4.82;;
26756;SDS011;23848;49.798;10.228;2023-05-20T03:56:00;7.82;;;5.55;;
26756;SDS011;23848;49.798;10.228;2023-05-20T03:58:29;6.78;;;5.53;;
26756;SDS011;23848;49.798;10.228;2023-05-20T04:00:58;7.07;;;5.70;;
26756;SDS011;23848;49.798;10.228;2023-05-20T04:03:28;7.47;;;5.25;;
26756;SDS011;23848;49.798;10.228;2023-05-20T04:05:57;6.05;;;4.95;;
26756;SDS011;23848;49.798;10.228;2023-05-20T04:08:26;7.05;;;5.75;;
26756;SDS011;23848;49.798;10.228;2023-05-20T04:10:57;7.53;;;6.05;;
26756;SDS011;23848;49.798;10.228;2023-05-20T04:13:25;8.93;;;5.75;;
26756;SDS011;23848;49.798;10.228;2023-05-20T04:15:53;7.45;;;5.22;;
26756;SDS011;23848;49.798;10.228;2023-05-20T04:18:23;7.43;;;5.28;;
26756;SDS011;23848;49.798;10.228;2023-05-20T04:20:53;7.43;;;5.85;;
26756;SDS011;23848;49.798;10.228;2023-05-20T04:23:21;9.95;;;5.28;;
26756;SDS011;23848;49.798;10.228;2023-05-20T04:25:49;6.68;;;5.10;;
26756;SDS011;23848;49.798;10.228;2023-05-20T04:28:19;6.85;;;5.78;;
26756;SDS011;23848;49.798;10.228;2023-05-20T04:30:56;7.05;;;5.78;;
26756;SDS011;23848;49.798;10.228;2023-05-20T04:33:25;8.23;;;5.35;;
26756;SDS011;23848;49.798;10.228;2023-05-20T04:35:53;7.18;;;5.82;;
26756;SDS011;23848;49.798;10.228;2023-05-20T04:38:23;6.53;;;5.43;;
26756;SDS011;23848;49.798;10.228;2023-05-20T04:40:55;6.50;;;5.03;;
26756;SDS011;23848;49.798;10.228;2023-05-20T04:43:25;8.48;;;5.97;;
26756;SDS011;23848;49.798;10.228;2023-05-20T04:45:56;7.13;;;5.63;;
26756;SDS011;23848;49.798;10.228;2023-05-20T04:48:25;6.53;;;5.05;;
26756;SDS011;23848;49.798;10.228;2023-05-20T04:50:55;6.10;;;5.13;;
26756;SDS011;23848;49.798;10.228;2023-05-20T04:53:24;6.65;;;5.40;;
26756;SDS011;23848;49.798;10.228;2023-05-20T04:55:53;7.32;;;5.50;;
26756;SDS011;23848;49.798;10.228;2023-05-20T04:58:22;6.70;;;5.68;;
26756;SDS011;23848;49.798;10.228;2023-05-20T05:00:52;7.85;;;4.78;;
26756;SDS011;23848;49.798;10.228;2023-05-20T05:03:21;7.72;;;5.57;;
26756;SDS011;23848;49.798;10.228;2023-05-20T05:05:50;7.18;;;5.60;;
26756;SDS011;23848;49.798;10.228;2023-05-20T05:08:22;7.15;;;5.55;;
26756;SDS011;23848;49.798;10.228;2023-05-20T05:10:51;8.38;;;6.05;;
26756;SDS011;23848;49.798;10.228;2023-05-20T05:13:21;6.95;;;5.50;;
26756;SDS011;23848;49.798;10.228;2023-05-20T05:15:57;7.53;;;5.70;;
26756;SDS011;23848;49.798;10.228;2023-05-20T05:18:26;8.43;;;6.03;;
26756;SDS011;23848;49.798;10.228;2023-05-20T05:21:01;8.00;;;5.63;;
26756;SDS011;23848;49.798;10.228;2023-05-20T05:23:30;8.85;;;6.63;;
26756;SDS011;23848;49.798;10.228;2023-05-20T05:25:58;9.55;;;6.45;;
26756;SDS011;23848;49.798;10.228;2023-05-20T05:28:26;7.13;;;5.80;;
26756;SDS011;23848;49.798;10.228;2023-05-20T05:30:55;7.00;;;5.30;;
26756;SDS011;23848;49.798;10.228;2023-05-20T05:33:24;7.95;;;5.75;;
26756;SDS011;23848;49.798;10.228;2023-05-20T05:35:53;8.98;;;6.32;;
26756;SDS011;23848;49.798;10.228;2023-05-20T05:38:24;8.32;;;6.25;;
26756;SDS011;23848;49.798;10.228;2023-05-20T05:40:54;6.50;;;5.70;;
26756;SDS011;23848;49.798;10.228;2023-05-20T05:43:23;8.68;;;6.47;;
26756;SDS011;23848;49.798;10.228;2023-05-20T05:45:51;7.65;;;5.72;;
26756;SDS011;23848;49.798;10.228;2023-05-20T05:48:20;7.85;;;5.70;;
26756;SDS011;23848;49.798;10.228;2023-05-20T05:50:49;10.35;;;6.57;;
26756;SDS011;23848;49.798;10.228;2023-05-20T05:53:18;8.65;;;6.53;;
26756;SDS011;23848;49.798;10.228;2023-05-20T05:55:46;9.20;;;6.80;;
26756;SDS011;23848;49.798;10.228;2023-05-20T05:58:14;8.55;;;6.15;;
26756;SDS011;23848;49.798;10.228;2023-05-20T06:00:42;7.97;;;6.30;;
26756;SDS011;23848;49.798;10.228;2023-05-20T06:03:11;9.32;;;7.57;;
26756;SDS011;23848;49.798;10.228;2023-05-20T06:05:39;8.15;;;6.47;;
26756;SDS011;23848;49.798;10.228;2023-05-20T06:08:12;8.48;;;6.50;;
26756;SDS011;23848;49.798;10.228;2023-05-20T06:10:41;9.70;;;7.10;;
26756;SDS011;23848;49.798;10.228;2023-05-20T06:13:10;8.85;;;6.90;;
26756;SDS011;23848;49.798;10.228;2023-05-20T06:15:39;9.68;;;7.22;;
26756;SDS011;23848;49.798;10.228;2023-05-20T06:18:11;9.35;;;6.70;;
26756;SDS011;23848;49.798;10.228;2023-05-20T06:20:39;9.15;;;6.93;;
26756;SDS011;23848;49.798;10.228;2023-05-20T06:23:08;9.48;;;7.10;;
26756;SDS011;23848;49.798;10.228;2023-05-20T06:25:37;8.15;;;6.63;;
26756;SDS011;23848;49.798;10.228;2023-05-20T06:28:07;7.72;;;6.05;;
26756;SDS011;23848;49.798;10.228;2023-05-20T06:30:36;9.15;;;6.70;;
26756;SDS011;23848;49.798;10.228;2023-05-20T06:33:04;9.70;;;6.90;;
26756;SDS011;23848;49.798;10.228;2023-05-20T06:35:33;9.25;;;7.13;;
26756;SDS011;23848;49.798;10.228;2023-05-20T06:38:01;8.07;;;6.15;;
26756;SDS011;23848;49.798;10.228;2023-05-20T06:40:30;11.48;;;7.60;;
26756;SDS011;23848;49.798;10.228;2023-05-20T06:43:00;10.25;;;6.93;;
26756;SDS011;23848;49.798;10.228;2023-05-20T06:45:28;9.38;;;6.90;;
26756;SDS011;23848;49.798;10.228;2023-05-20T06:47:57;11.32;;;7.10;;
26756;SDS011;23848;49.798;10.228;2023-05-20T06:50:25;10.70;;;7.80;;
26756;SDS011;23848;49.798;10.228;2023-05-20T06:52:54;10.05;;;6.93;;
26756;SDS011;23848;49.798;10.228;2023-05-20T06:55:25;8.13;;;6.50;;
26756;SDS011;23848;49.798;10.228;2023-05-20T06:57:54;8.55;;;7.07;;
26756;SDS011;23848;49.798;10.228;2023-05-20T07:00:23;9.10;;;6.90;;
26756;SDS011;23848;49.798;10.228;2023-05-20T07:02:54;10.30;;;7.13;;
26756;SDS011;23848;49.798;10.228;2023-05-20T07:05:23;11.63;;;6.78;;
26756;SDS011;23848;49.798;10.228;2023-05-20T07:07:52;9.63;;;6.65;;
26756;SDS011;23848;49.798;10.228;2023-05-20T07:10:21;9.80;;;7.25;;
26756;SDS011;23848;49.798;10.228;2023-05-20T07:12:49;10.65;;;7.30;;
26756;SDS011;23848;49.798;10.228;2023-05-20T07:15:22;7.75;;;6.70;;
26756;SDS011;23848;49.798;10.228;2023-05-20T07:17:51;9.50;;;7.38;;
26756;SDS011;23848;49.798;10.228;2023-05-20T07:20:21;9.68;;;7.30;;
26756;SDS011;23848;49.798;10.228;2023-05-20T07:22:55;10.30;;;7.40;;
26756;SDS011;23848;49.798;10.228;2023-05-20T07:25:24;10.07;;;6.68;;
26756;SDS011;23848;49.798;10.228;2023-05-20T07:27:54;9.82;;;6.90;;
26756;SDS011;23848;49.798;10.228;2023-05-20T07:30:22;9.18;;;7.10;;
26756;SDS011;23848;49.798;10.228;2023-05-20T07:32:53;9.48;;;6.80;;
26756;SDS011;23848;49.798;10.228;2023-05-20T07:35:23;9.57;;;6.68;;
26756;SDS011;23848;49.798;10.228;2023-05-20T07:37:54;8.70;;;6.38;;
26756;SDS011;23848;49.798;10.228;2023-05-20T07:40:23;8.73;;;7.00;;
26756;SDS011;23848;49.798;10.228;2023-05-20T07:42:51;9.23;;;7.70;;
26756;SDS011;23848;49.798;10.228;2023-05-20T07:45:19;8.35;;;6.65;;
26756;SDS011;23848;49.798;10.228;2023-05-20T07:47:48;8.30;;;6.55;;
26756;SDS011;23848;49.798;10.228;2023-05-20T07:50:18;11.73;;;7.97;;
26756;SDS011;23848;49.798;10.228;2023-05-20T07:52:46;10.35;;;7.45;;
26756;SDS011;23848;49.798;10.228;2023-05-20T07:55:23;10.27;;;6.55;;
26756;SDS011;23848;49.798;10.228;2023-05-20T07:57:51;10.07;;;6.80;;
26756;SDS011;23848;49.798;10.228;2023-05-20T08:00:22;10.90;;;7.35;;
26756;SDS011;23848;49.798;10.228;2023-05-20T08:02:51;10.55;;;7.93;;
26756;SDS011;23848;49.798;10.228;2023-05-20T08:05:21;10.43;;;8.13;;
26756;SDS011;23848;49.798;10.228;2023-05-20T08:07:51;10.25;;;6.68;;
26756;SDS011;23848;49.798;10.228;2023-05-20T08:10:20;8.82;;;6.55;;
26756;SDS011;23848;49.798;10.228;2023-05-20T08:12:48;9.85;;;7.40;;
26756;SDS011;23848;49.798;10.228;2023-05-20T08:15:17;11.18;;;8.07;;
26756;SDS011;23848;49.798;10.228;2023-05-20T08:17:45;9.10;;;6.95;;
26756;SDS011;23848;49.798;10.228;2023-05-20T08:20:14;11.15;;;7.00;;
26756;SDS011;23848;49.798;10.228;2023-05-20T08:22:45;9.15;;;6.88;;
26756;SDS011;23848;49.798;10.228;2023-05-20T08:25:13;9.95;;;7.18;;
26756;SDS011;23848;49.798;10.228;2023-05-20T08:27:42;9.07;;;6.53;;
26756;SDS011;23848;49.798;10.228;2023-05-20T08:30:10;11.20;;;7.82;;
26756;SDS011;23848;49.798;10.228;2023-05-20T08:32:41;10.00;;;7.15;;
26756;SDS011;23848;49.798;10.228;2023-05-20T08:35:12;9.05;;;7.22;;
26756;SDS011;23848;49.798;10.228;2023-05-20T08:37:40;10.82;;;6.78;;
26756;SDS011;23848;49.798;10.228;2023-05-20T08:40:11;9.60;;;7.10;;
26756;SDS011;23848;49.798;10.228;2023-05-20T08:42:46;8.18;;;6.82;;
26756;SDS011;23848;49.798;10.228;2023-05-20T08:45:17;10.63;;;6.13;;
26756;SDS011;23848;49.798;10.228;2023-05-20T08:47:46;8.90;;;7.00;;
26756;SDS011;23848;49.798;10.228;2023-05-20T08:50:15;9.13;;;6.55;;
26756;SDS011;23848;49.798;10.228;2023-05-20T08:52:44;9.55;;;7.35;;
26756;SDS011;23848;49.798;10.228;2023-05-20T08:55:17;9.80;;;6.97;;
26756;SDS011;23848;49.798;10.228;2023-05-20T08:57:48;9.85;;;6.35;;
26756;SDS011;23848;49.798;10.228;2023-05-20T09:00:17;9.05;;;7.25;;
26756;SDS011;23848;49.798;10.228;2023-05-20T09:02:46;7.70;;;6.80;;
26756;SDS011;23848;49.798;10.228;2023-05-20T09:05:17;9.40;;;7.05;;
26756;SDS011;23848;49.798;10.228;2023-05-20T09:07:46;9.45;;;7.25;;
26756;SDS011;23848;49.798;10.228;2023-05-20T09:10:19;11.90;;;7.50;;
26756;SDS011;23848;49.798;10.228;2023-05-20T09:12:47;8.45;;;6.40;;
26756;SDS011;23848;49.798;10.228;2023-05-20T09:15:16;7.43;;;6.13;;
26756;SDS011;23848;49.798;10.228;2023-05-20T09:17:44;9.63;;;6.50;;
26756;SDS011;23848;49.798;10.228;2023-05-20T09:20:13;8.65;;;6.45;;
26756;SDS011;23848;49.798;10.228;2023-05-20T09:22:43;8.57;;;6.68;;
26756;SDS011;23848;49.798;10.228;2023-05-20T09:25:12;8.07;;;6.53;;
26756;SDS011;23848;49.798;10.228;2023-05-20T09:27:50;7.90;;;6.28;;
26756;SDS011;23848;49.798;10.228;2023-05-20T09:30:20;8.85;;;6.05;;
26756;SDS011;23848;49.798;10.228;2023-05-20T09:32:52;7.85;;;6.45;;
26756;SDS011;23848;49.798;10.228;2023-05-20T09:37:51;7.40;;;5.72;;
26756;SDS011;23848;49.798;10.228;2023-05-20T09:40:22;8.52;;;6.57;;
26756;SDS011;23848;49.798;10.228;2023-05-20T09:42:55;7.68;;;6.45;;
26756;SDS011;23848;49.798;10.228;2023-05-20T09:45:23;8.23;;;7.05;;
26756;SDS011;23848;49.798;10.228;2023-05-20T09:47:53;10.65;;;7.00;;
26756;SDS011;23848;49.798;10.228;2023-05-20T09:50:28;8.10;;;6.72;;
26756;SDS011;23848;49.798;10.228;2023-05-20T09:53:00;8.20;;;6.72;;
26756;SDS011;23848;49.798;10.228;2023-05-20T09:55:37;11.13;;;7.22;;
26756;SDS011;23848;49.798;10.228;2023-05-20T09:58:16;9.52;;;7.05;;
26756;SDS011;23848;49.798;10.228;2023-05-20T10:00:56;7.78;;;5.88;;
26756;SDS011;23848;49.798;10.228;2023-05-20T10:03:25;8.85;;;6.57;;
26756;SDS011;23848;49.798;10.228;2023-05-20T10:06:03;8.52;;;6.40;;
26756;SDS011;23848;49.798;10.228;2023-05-20T10:08:39;9.15;;;6.88;;
26756;SDS011;23848;49.798;10.228;2023-05-20T10:11:16;8.68;;;7.13;;
26756;SDS011;23848;49.798;10.228;2023-05-20T10:13:51;9.02;;;6.38;;
26756;SDS011;23848;49.798;10.228;2023-05-20T10:16:30;20.00;;;11.18;;
26756;SDS011;23848;49.798;10.228;2023-05-20T10:19:04;13.30;;;8.13;;
26756;SDS011;23848;49.798;10.228;2023-05-20T10:21:36;9.82;;;7.00;;
26756;SDS011;23848;49.798;10.228;2023-05-20T10:24:08;7.88;;;6.40;;
26756;SDS011;23848;49.798;10.228;2023-05-20T10:26:38;8.30;;;6.55;;
26756;SDS011;23848;49.798;10.228;2023-05-20T10:29:15;10.10;;;6.70;;
26756;SDS011;23848;49.798;10.228;2023-05-20T10:31:50;8.55;;;5.93;;
26756;SDS011;23848;49.798;10.228;2023-05-20T10:34:19;8.95;;;6.28;;
26756;SDS011;23848;49.798;10.228;2023-05-20T10:36:56;7.68;;;6.07;;
26756;SDS011;23848;49.798;10.228;2023-05-20T10:39:28;7.78;;;5.95;;
26756;SDS011;23848;49.798;10.228;2023-05-20T10:42:08;8.48;;;6.57;;
26756;SDS011;23848;49.798;10.228;2023-05-20T10:44:42;7.78;;;6.03;;
26756;SDS011;23848;49.798;10.228;2023-05-20T10:47:19;8.32;;;6.25;;
26756;SDS011;23848;49.798;10.228;2023-05-20T10:49:51;8.23;;;6.68;;
26756;SDS011;23848;49.798;10.228;2023-05-20T10:52:20;6.65;;;5.78;;
26756;SDS011;23848;49.798;10.228;2023-05-20T10:54:53;7.55;;;5.70;;
26756;SDS011;23848;49.798;10.228;2023-05-20T10:57:22;7.40;;;5.63;;
26756;SDS011;23848;49.798;10.228;2023-05-20T10:59:55;7.75;;;5.90;;
26756;SDS011;23848;49.798;10.228;2023-05-20T11:02:24;7.60;;;5.93;;
26756;SDS011;23848;49.798;10.228;2023-05-20T11:04:55;8.68;;;6.55;;
26756;SDS011;23848;49.798;10.228;2023-05-20T11:07:25;9.63;;;6.40;;
26756;SDS011;23848;49.798;10.228;2023-05-20T11:09:57;7.93;;;5.85;;
26756;SDS011;23848;49.798;10.228;2023-05-20T11:12:26;9.40;;;6.00;;
26756;SDS011;23848;49.798;10.228;2023-05-20T11:14:57;8.75;;;5.93;;
26756;SDS011;23848;49.798;10.228;2023-05-20T11:17:29;7.80;;;5.78;;
26756;SDS011;23848;49.798;10.228;2023-05-20T11:20:02;7.18;;;6.28;;
26756;SDS011;23848;49.798;10.228;2023-05-20T11:22:30;7.90;;;6.10;;
26756;SDS011;23848;49.798;10.228;2023-05-20T11:24:59;7.50;;;6.03;;
26756;SDS011;23848;49.798;10.228;2023-05-20T11:27:38;9.63;;;6.18;;
26756;SDS011;23848;49.798;10.228;2023-05-20T11:32:38;7.32;;;5.53;;
26756;SDS011;23848;49.798;10.228;2023-05-20T11:35:07;8.23;;;6.38;;
26756;SDS011;23848;49.798;10.228;2023-05-20T11:37:37;8.75;;;6.97;;
26756;SDS011;23848;49.798;10.228;2023-05-20T11:40:11;9.68;;;6.07;;
26756;SDS011;23848;49.798;10.228;2023-05-20T11:42:44;7.57;;;5.88;;
26756;SDS011;23848;49.798;10.228;2023-05-20T11:45:12;7.20;;;5.60;;
26756;SDS011;23848;49.798;10.228;2023-05-20T11:47:44;7.72;;;5.78;;
26756;SDS011;23848;49.798;10.228;2023-05-20T11:50:15;8.20;;;6.25;;
26756;SDS011;23848;49.798;10.228;2023-05-20T11:52:46;8.43;;;5.82;;
26756;SDS011;23848;49.798;10.228;2023-05-20T11:55:16;6.95;;;6.18;;
26756;SDS011;23848;49.798;10.228;2023-05-20T11:57:45;7.57;;;6.00;;
26756;SDS011;23848;49.798;10.228;2023-05-20T12:00:14;8.70;;;6.55;;
26756;SDS011;23848;49.798;10.228;2023-05-20T12:02:45;11.00;;;5.90;;
26756;SDS011;23848;49.798;10.228;2023-05-20T12:05:20;7.78;;;5.95;;
26756;SDS011;23848;49.798;10.228;2023-05-20T12:07:49;8.82;;;6.85;;
26756;SDS011;23848;49.798;10.228;2023-05-20T12:10:17;7.97;;;5.85;;
26756;SDS011;23848;49.798;10.228;2023-05-20T12:12:48;9.38;;;7.30;;
26756;SDS011;23848;49.798;10.228;2023-05-20T12:15:18;7.82;;;5.93;;
26756;SDS011;23848;49.798;10.228;2023-05-20T12:17:49;8.52;;;5.95;;
26756;SDS011;23848;49.798;10.228;2023-05-20T12:20:20;7.75;;;5.95;;
26756;SDS011;23848;49.798;10.228;2023-05-20T12:22:54;8.20;;;6.20;;
26756;SDS011;23848;49.798;10.228;2023-05-20T12:25:23;7.03;;;5.47;;
26756;SDS011;23848;49.798;10.228;2023-05-20T12:27:54;7.72;;;5.75;;
26756;SDS011;23848;49.798;10.228;2023-05-20T12:30:24;7.57;;;5.95;;
26756;SDS011;23848;49.798;10.228;2023-05-20T12:32:58;7.77;;;6.27;;
26756;SDS011;23848;49.798;10.228;2023-05-20T12:35:35;8.98;;;6.32;;
26756;SDS011;23848;49.798;10.228;2023-05-20T12:38:04;9.63;;;6.05;;
26756;SDS011;23848;49.798;10.228;2023-05-20T12:40:34;8.27;;;6.35;;
26756;SDS011;23848;49.798;10.228;2023-05-20T12:43:04;11.85;;;5.50;;
26756;SDS011;23848;49.798;10.228;2023-05-20T12:45:35;8.13;;;5.82;;
26756;SDS011;23848;49.798;10.228;2023-05-20T12:48:07;7.55;;;5.85;;
26756;SDS011;23848;49.798;10.228;2023-05-20T12:50:36;7.25;;;5.95;;
26756;SDS011;23848;49.798;10.228;2023-05-20T12:53:06;9.57;;;6.15;;
26756;SDS011;23848;49.798;10.228;2023-05-20T12:55:39;7.93;;;5.70;;
26756;SDS011;23848;49.798;10.228;2023-05-20T12:58:08;8.07;;;5.80;;
26756;SDS011;23848;49.798;10.228;2023-05-20T13:00:37;8.85;;;6.25;;
26756;SDS011;23848;49.798;10.228;2023-05-20T13:03:07;7.80;;;6.25;;
26756;SDS011;23848;49.798;10.228;2023-05-20T13:05:48;7.93;;;6.10;;
26756;SDS011;23848;49.798;10.228;2023-05-20T13:08:16;8.00;;;6.07;;
26756;SDS011;23848;49.798;10.228;2023-05-20T13:10:46;7.90;;;5.95;;
26756;SDS011;23848;49.798;10.228;2023-05-20T13:13:17;8.98;;;6.13;;
26756;SDS011;23848;49.798;10.228;2023-05-20T13:15:48;10.52;;;6.75;;
26756;SDS011;23848;49.798;10.228;2023-05-20T13:18:17;9.23;;;6.15;;
26756;SDS011;23848;49.798;10.228;2023-05-20T13:20:46;9.57;;;6.75;;
26756;SDS011;23848;49.798;10.228;2023-05-20T13:23:17;7.55;;;5.82;;
26756;SDS011;23848;49.798;10.228;2023-05-20T13:25:48;7.15;;;5.50;;
26756;SDS011;23848;49.798;10.228;2023-05-20T13:28:19;6.47;;;5.22;;
26756;SDS011;23848;49.798;10.228;2023-05-20T13:30:47;7.65;;;5.45;;
26756;SDS011;23848;49.798;10.228;2023-05-20T13:33:17;7.18;;;5.45;;
26756;SDS011;23848;49.798;10.228;2023-05-20T13:35:48;7.05;;;5.75;;
26756;SDS011;23848;49.798;10.228;2023-05-20T13:38:18;9.70;;;6.07;;
26756;SDS011;23848;49.798;10.228;2023-05-20T13:40:47;6.85;;;5.22;;
26756;SDS011;23848;49.798;10.228;2023-05-20T13:43:15;8.30;;;6.22;;
26756;SDS011;23848;49.798;10.228;2023-05-20T13:45:48;7.72;;;5.05;;
26756;SDS011;23848;49.798;10.228;2023-05-20T13:48:36;6.82;;;5.43;;
26756;SDS011;23848;49.798;10.228;2023-05-20T13:51:05;7.72;;;5.65;;
26756;SDS011;23848;49.798;10.228;2023-05-20T13:53:33;6.78;;;5.88;;
26756;SDS011;23848;49.798;10.228;2023-05-20T13:56:03;7.93;;;5.57;;
26756;SDS011;23848;49.798;10.228;2023-05-20T13:58:37;8.23;;;5.50;;
26756;SDS011;23848;49.798;10.228;2023-05-20T14:01:06;6.82;;;5.55;;
26756;SDS011;23848;49.798;10.228;2023-05-20T14:03:36;7.75;;;6.00;;
26756;SDS011;23848;49.798;10.228;2023-05-20T14:06:06;7.80;;;5.55;;
26756;SDS011;23848;49.798;10.228;2023-05-20T14:08:34;7.75;;;5.70;;
26756;SDS011;23848;49.798;10.228;2023-05-20T14:11:02;7.25;;;5.82;;
26756;SDS011;23848;49.798;10.228;2023-05-20T14:13:37;8.73;;;5.95;;
26756;SDS011;23848;49.798;10.228;2023-05-20T14:16:13;7.78;;;6.05;;
26756;SDS011;23848;49.798;10.228;2023-05-20T14:18:46;9.02;;;6.72;;
26756;SDS011;23848;49.798;10.228;2023-05-20T14:21:21;8.50;;;5.90;;
26756;SDS011;23848;49.798;10.228;2023-05-20T14:23:49;6.53;;;4.90;;
26756;SDS011;23848;49.798;10.228;2023-05-20T14:26:18;7.78;;;5.72;;
26756;SDS011;23848;49.798;10.228;2023-05-20T14:28:46;7.68;;;5.93;;
26756;SDS011;23848;49.798;10.228;2023-05-20T14:31:15;11.05;;;5.68;;
26756;SDS011;23848;49.798;10.228;2023-05-20T14:33:44;9.32;;;6.32;;
26756;SDS011;23848;49.798;10.228;2023-05-20T14:36:28;6.18;;;5.18;;
26756;SDS011;23848;49.798;10.228;2023-05-20T14:38:58;8.55;;;5.30;;
26756;SDS011;23848;49.798;10.228;2023-05-20T14:41:28;7.35;;;5.30;;
26756;SDS011;23848;49.798;10.228;2023-05-20T14:44:02;6.43;;;5.05;;
26756;SDS011;23848;49.798;10.228;2023-05-20T14:46:33;6.93;;;5.03;;
26756;SDS011;23848;49.798;10.228;2023-05-20T14:49:01;7.43;;;5.07;;
26756;SDS011;23848;49.798;10.228;2023-05-20T14:51:34;6.78;;;4.95;;
26756;SDS011;23848;49.798;10.228;2023-05-20T14:54:23;7.32;;;5.15;;
26756;SDS011;23848;49.798;10.228;2023-05-20T14:56:56;6.85;;;5.32;;